createdAt,value
2023-03-20T00:05:19.290Z,100.00
2023-03-20T00:15:28.079Z,100.00
2023-03-20T00:25:30.617Z,100.00
2023-03-20T00:35:33.857Z,100.00
2023-03-20T00:45:37.309Z,100.00
2023-03-20T00:55:41.249Z,100.00
2023-03-20T01:05:44.600Z,100.00
2023-03-20T01:15:47.957Z,100.00
2023-03-20T01:25:51.010Z,100.00
2023-03-20T01:35:53.898Z,100.00
2023-03-20T01:46:05.219Z,100.00
2023-03-20T01:56:08.251Z,100.00
2023-03-20T02:06:11.828Z,100.00
2023-03-20T02:16:17.293Z,100.00
2023-03-20T02:26:44.948Z,100.00
2023-03-20T02:37:18.448Z,100.00
2023-03-20T02:47:39.440Z,100.00
2023-03-20T02:58:07.876Z,100.00
2023-03-20T03:08:14.662Z,100.00
2023-03-20T03:18:24.268Z,100.00
2023-03-20T03:28:39.670Z,100.00
2023-03-20T03:38:56.576Z,100.00
2023-03-20T03:48:59.942Z,100.00
2023-03-20T03:59:09.957Z,100.00
2023-03-20T04:09:12.365Z,100.00
2023-03-20T04:19:14.688Z,100.00
2023-03-20T04:29:17.114Z,100.00
2023-03-20T04:39:19.634Z,100.00
2023-03-20T04:49:22.373Z,100.00
2023-03-20T04:59:25.020Z,100.00
2023-03-20T05:09:27.984Z,100.00
2023-03-20T05:19:30.567Z,100.00
2023-03-20T05:29:33.148Z,100.00
2023-03-20T05:39:35.859Z,100.00
2023-03-20T05:49:38.525Z,100.00
2023-03-20T05:59:41.430Z,100.00
2023-03-20T06:09:43.816Z,100.00
2023-03-20T06:19:46.323Z,100.00
2023-03-20T06:29:49.142Z,100.00
2023-03-20T06:39:51.928Z,100.00
2023-03-20T06:49:54.543Z,100.00
2023-03-20T06:59:57.132Z,100.00
2023-03-20T07:09:59.839Z,100.00
2023-03-20T07:20:02.520Z,100.00
2023-03-20T07:30:07.045Z,100.00
2023-03-20T07:40:10.474Z,100.00
2023-03-20T07:50:13.076Z,100.00
2023-03-20T08:00:17.295Z,100.00
2023-03-20T08:10:20.380Z,100.00
2023-03-20T08:20:23.201Z,100.00
2023-03-20T08:30:27.658Z,100.00
2023-03-20T08:40:30.855Z,100.00
2023-03-20T08:50:34.131Z,100.00
2023-03-20T09:00:36.798Z,100.00
2023-03-20T09:10:41.195Z,100.00
2023-03-20T09:20:43.684Z,100.00
2023-03-20T09:30:46.692Z,100.00
2023-03-20T09:40:59.490Z,100.00
2023-03-20T09:51:16.568Z,100.00
2023-03-20T10:01:22.862Z,100.00
2023-03-20T10:11:31.504Z,100.00
2023-03-20T10:21:54.316Z,100.00
2023-03-20T10:32:02.932Z,92.97
2023-03-20T10:42:15.234Z,93.50
2023-03-20T10:52:22.752Z,93.55
2023-03-20T11:02:31.017Z,94.68
2023-03-20T11:12:46.589Z,92.62
2023-03-20T11:22:51.202Z,71.86
2023-03-20T11:32:57.589Z,70.56
2023-03-20T11:43:05.175Z,67.03
2023-03-20T11:53:32.859Z,69.94
2023-03-20T12:03:43.417Z,62.51
2023-03-20T12:13:49.868Z,60.20
2023-03-20T12:24:14.464Z,60.59
2023-03-20T12:34:36.149Z,63.24
2023-03-20T12:45:06.408Z,61.63
2023-03-20T12:55:30.438Z,58.62
2023-03-20T13:05:42.340Z,59.43
2023-03-20T13:16:23.394Z,56.39
2023-03-20T13:26:36.895Z,53.09
2023-03-20T13:37:24.419Z,52.93
2023-03-20T13:47:29.428Z,53.06
2023-03-20T13:57:45.272Z,52.37
2023-03-20T14:07:50.094Z,51.43
2023-03-20T14:17:55.315Z,52.25
2023-03-20T14:28:01.405Z,47.64
2023-03-20T14:38:13.072Z,50.24
2023-03-20T14:48:31.477Z,49.91
2023-03-20T14:58:54.330Z,49.76
2023-03-20T15:09:05.836Z,50.32
2023-03-20T15:19:20.125Z,54.82
2023-03-20T15:29:23.194Z,52.17
2023-03-20T15:39:28.975Z,52.49
2023-03-20T15:49:33.276Z,52.72
2023-03-20T15:59:36.189Z,51.51
2023-03-20T16:09:45.976Z,52.57
2023-03-20T16:19:49.779Z,55.10
2023-03-20T16:29:54.958Z,57.87
2023-03-20T16:40:21.410Z,61.54
2023-03-20T16:50:35.726Z,60.01
2023-03-20T17:00:52.771Z,61.29
2023-03-20T17:10:59.465Z,64.87
2023-03-20T17:21:02.202Z,74.42
2023-03-20T17:31:06.795Z,78.96
2023-03-20T17:41:13.452Z,84.37
2023-03-20T17:51:15.985Z,91.11
2023-03-20T18:01:18.856Z,95.96
2023-03-20T18:11:22.397Z,100.00
2023-03-20T18:21:26.435Z,100.00
2023-03-20T18:31:30.116Z,100.00
2023-03-20T18:41:34.204Z,100.00
2023-03-20T18:51:37.622Z,100.00
2023-03-20T19:01:41.480Z,100.00
2023-03-20T19:11:45.231Z,100.00
2023-03-20T19:21:48.681Z,100.00
2023-03-20T19:31:52.261Z,100.00
2023-03-20T19:41:55.955Z,100.00
2023-03-20T19:51:59.429Z,100.00
2023-03-20T20:02:03.242Z,100.00
2023-03-20T20:12:07.032Z,100.00
2023-03-20T20:22:22.454Z,100.00
2023-03-20T20:32:37.604Z,100.00
2023-03-20T20:42:43.397Z,100.00
2023-03-20T20:52:47.169Z,100.00
2023-03-20T21:02:50.804Z,100.00
2023-03-20T21:13:03.917Z,100.00
2023-03-20T21:23:07.437Z,100.00
2023-03-20T21:33:11.238Z,100.00
2023-03-20T21:43:16.718Z,100.00
2023-03-20T22:15:11.902Z,100.00
2023-03-20T22:45:24.034Z,100.00
2023-03-20T22:55:30.169Z,100.00
2023-03-20T23:05:37.636Z,100.00
2023-03-20T23:15:41.820Z,100.00
2023-03-20T23:25:45.497Z,100.00
2023-03-20T23:35:51.254Z,100.00
2023-03-20T23:45:54.950Z,100.00
2023-03-20T23:55:59.082Z,100.00
